Time;durP1;ratioP1;P1;durP2;ratioP2;P2;SDS_P1;SDS_P2;PMS_P1;PMS_P2;Temp;Humidity;BMP_temperature;BMP_pressure;BME280_temperature;BME280_humidity;BME280_pressure;Samples;Min_cycle;Max_cycle;Signal;HPM_P1;HPM_P2
2022/07/25 02:48:07;;;;;;;11.18;6.57;;;21.30;99.90;;;;;;5044697;23;93374;-79
2022/07/25 02:50:33;;;;;;;9.73;6.20;;;21.20;99.90;;;;;;4897733;28;92487;-78
2022/07/25 02:52:58;;;;;;;9.68;6.65;;;21.30;99.90;;;;;;4895553;28;91813;-79
2022/07/25 02:55:24;;;;;;;9.65;5.70;;;21.30;99.90;;;;;;4897034;28;92164;-79
2022/07/25 02:57:50;;;;;;;14.57;7.00;;;21.20;99.90;;;;;;4897218;28;92067;-79
2022/07/25 03:00:16;;;;;;;8.52;5.75;;;21.20;99.90;;;;;;4897249;28;92978;-79
2022/07/25 03:02:42;;;;;;;12.15;6.85;;;21.20;99.90;;;;;;4896305;28;93795;-79
2022/07/25 03:05:11;;;;;;;9.95;5.80;;;21.30;99.90;;;;;;4897575;28;92132;-79
2022/07/25 03:07:37;;;;;;;8.95;6.00;;;21.20;99.90;;;;;;4897420;28;91902;-78
2022/07/25 03:10:05;;;;;;;10.20;6.18;;;21.30;99.90;;;;;;4897709;28;92666;-79
2022/07/25 03:12:32;;;;;;;9.07;6.03;;;21.30;99.90;;;;;;4896970;28;94353;-79
2022/07/25 03:14:58;;;;;;;8.13;5.63;;;21.30;99.90;;;;;;4897369;28;92156;-79
2022/07/25 03:17:24;;;;;;;11.85;7.30;;;21.20;99.90;;;;;;4897891;28;91585;-80
2022/07/25 03:19:50;;;;;;;10.68;7.40;;;21.10;99.90;;;;;;4896575;28;93719;-79
2022/07/25 03:22:16;;;;;;;9.38;5.93;;;20.90;99.90;;;;;;4896905;28;92032;-79
2022/07/25 03:24:41;;;;;;;11.10;6.43;;;21.00;99.90;;;;;;4896209;28;93190;-79
2022/07/25 03:27:07;;;;;;;9.70;6.80;;;21.00;99.90;;;;;;4899575;28;91521;-79
2022/07/25 03:29:33;;;;;;;10.25;6.05;;;20.90;99.90;;;;;;4900296;28;93207;-79
2022/07/25 03:31:59;;;;;;;9.25;5.90;;;20.80;99.90;;;;;;4900167;28;91870;-80
2022/07/25 03:34:25;;;;;;;14.13;6.93;;;20.90;99.90;;;;;;4883177;28;92050;-80
2022/07/25 03:36:50;;;;;;;13.20;6.80;;;20.90;99.90;;;;;;4900271;28;92033;-80
2022/07/25 03:39:17;;;;;;;10.38;6.40;;;20.90;99.90;;;;;;4899684;28;92251;-79
2022/07/25 03:41:42;;;;;;;10.80;6.82;;;20.90;99.90;;;;;;4900145;28;92976;-79
2022/07/25 03:44:08;;;;;;;12.80;6.88;;;20.90;99.90;;;;;;4900830;28;92055;-79
2022/07/25 03:46:34;;;;;;;8.15;5.95;;;20.90;99.90;;;;;;4900130;28;92236;-80
2022/07/25 03:48:59;;;;;;;9.85;6.95;;;20.90;99.90;;;;;;4899514;28;94739;-79
2022/07/25 03:51:25;;;;;;;10.57;7.47;;;20.90;99.90;;;;;;4899763;28;94277;-80
2022/07/25 03:54:03;;;;;;;10.00;7.07;;;20.80;99.90;;;;;;4900547;28;92154;-79
2022/07/25 03:56:35;;;;;;;11.77;7.10;;;20.90;99.90;;;;;;4900089;28;91929;-79
2022/07/25 03:59:02;;;;;;;11.32;7.28;;;21.00;99.90;;;;;;4900419;28;92257;-79
2022/07/25 04:01:27;;;;;;;11.57;6.70;;;21.00;99.90;;;;;;4900194;28;92131;-79
2022/07/25 04:03:53;;;;;;;13.43;7.60;;;20.90;99.90;;;;;;4908218;28;92080;-80
2022/07/25 04:06:19;;;;;;;9.45;6.45;;;20.80;99.90;;;;;;4904794;28;91463;-79
2022/07/25 04:08:45;;;;;;;9.07;6.03;;;20.90;99.90;;;;;;4919149;28;92800;-78
2022/07/25 04:11:11;;;;;;;10.57;5.45;;;21.00;99.90;;;;;;4909413;28;94441;-78
2022/07/25 04:13:36;;;;;;;12.65;7.05;;;21.10;99.90;;;;;;4899336;28;93468;-79
2022/07/25 04:16:02;;;;;;;8.45;5.93;;;21.10;99.90;;;;;;4900305;28;92240;-79
2022/07/25 04:18:28;;;;;;;13.18;6.88;;;21.10;99.90;;;;;;4899253;28;93087;-79
2022/07/25 04:20:53;;;;;;;8.73;6.32;;;21.10;99.90;;;;;;4917089;28;93573;-79
2022/07/25 04:23:19;;;;;;;7.88;5.97;;;21.20;99.90;;;;;;4919309;28;91954;-78
2022/07/25 04:25:45;;;;;;;10.70;6.28;;;21.70;99.90;;;;;;4918947;28;92053;-80
2022/07/25 04:28:10;;;;;;;10.57;7.28;;;22.20;99.90;;;;;;4918421;28;93518;-80
2022/07/25 04:30:36;;;;;;;10.77;6.57;;;22.30;99.90;;;;;;4918533;28;91942;-78
2022/07/25 04:33:02;;;;;;;10.20;6.57;;;22.70;99.90;;;;;;4918403;28;92446;-79
2022/07/25 04:35:28;;;;;;;9.32;5.97;;;23.30;96.70;;;;;;4917742;28;92031;-80
2022/07/25 04:37:53;;;;;;;9.80;5.90;;;23.90;95.80;;;;;;4898466;28;93709;-80
2022/07/25 04:40:19;;;;;;;8.80;6.25;;;24.40;92.50;;;;;;4899301;28;92364;-82
2022/07/25 04:42:45;;;;;;;10.45;6.13;;;24.60;92.10;;;;;;4899304;28;91885;-80
2022/07/25 04:45:13;;;;;;;8.32;6.53;;;25.10;90.80;;;;;;4899766;28;91821;-80
2022/07/25 04:47:39;;;;;;;7.70;5.68;;;25.70;87.30;;;;;;4899393;28;92732;-80
2022/07/25 04:50:05;;;;;;;8.38;5.53;;;26.20;85.80;;;;;;4899781;28;93372;-80
2022/07/25 04:52:31;;;;;;;8.38;6.47;;;26.70;83.90;;;;;;4899994;28;91978;-80
2022/07/25 04:54:57;;;;;;;8.43;6.15;;;27.10;79.70;;;;;;4900886;28;91290;-80
2022/07/25 04:57:22;;;;;;;9.43;6.78;;;27.00;77.00;;;;;;4899859;28;94000;-80
2022/07/25 04:59:48;;;;;;;13.77;6.35;;;26.20;79.10;;;;;;4900704;28;92373;-80
2022/07/25 05:02:14;;;;;;;8.60;5.75;;;26.50;79.40;;;;;;4900249;28;92896;-80
2022/07/25 05:04:40;;;;;;;7.63;5.95;;;27.30;78.20;;;;;;4901730;28;91314;-80
2022/07/25 05:07:05;;;;;;;9.35;6.13;;;28.40;74.60;;;;;;4901147;28;92051;-80
2022/07/25 05:09:31;;;;;;;9.13;5.93;;;29.10;71.80;;;;;;4901654;28;92897;-80
2022/07/25 05:11:57;;;;;;;11.43;6.85;;;29.50;70.50;;;;;;4918704;28;92521;-80
2022/07/25 05:14:22;;;;;;;9.00;6.97;;;30.20;68.40;;;;;;4921162;28;92504;-82
2022/07/25 05:16:48;;;;;;;8.73;6.47;;;30.80;65.20;;;;;;4920474;28;92653;-80
2022/07/25 05:19:13;;;;;;;9.50;6.95;;;31.20;64.80;;;;;;4920332;28;93014;-80
2022/07/25 05:21:39;;;;;;;7.80;6.20;;;31.60;62.60;;;;;;4921041;28;92578;-80
2022/07/25 05:24:05;;;;;;;9.23;5.75;;;32.10;61.00;;;;;;4920372;28;92084;-80
2022/07/25 05:26:31;;;;;;;8.88;6.13;;;32.50;61.20;;;;;;4919365;28;93016;-80
2022/07/25 05:28:57;;;;;;;8.40;6.00;;;32.70;60.60;;;;;;4919548;28;93124;-80
2022/07/25 05:31:22;;;;;;;9.88;6.53;;;33.20;58.50;;;;;;4920852;28;92024;-81
2022/07/25 05:33:48;;;;;;;8.07;6.78;;;33.60;57.60;;;;;;4919738;28;92013;-81
2022/07/25 05:36:15;;;;;;;7.88;6.35;;;33.80;56.00;;;;;;4919915;28;91918;-81
2022/07/25 05:38:41;;;;;;;11.15;7.25;;;34.00;56.70;;;;;;4920117;28;92823;-81
2022/07/25 05:41:07;;;;;;;10.32;5.93;;;34.50;55.90;;;;;;4919174;28;91936;-80
2022/07/25 05:43:33;;;;;;;7.32;5.75;;;34.90;55.10;;;;;;4921907;28;90998;-80
2022/07/25 05:46:00;;;;;;;8.35;6.07;;;35.40;53.40;;;;;;4920116;28;92767;-80
2022/07/25 05:48:26;;;;;;;7.95;6.55;;;35.70;52.90;;;;;;4920436;28;92109;-80
2022/07/25 05:50:52;;;;;;;9.85;6.05;;;35.80;52.20;;;;;;4920503;28;93079;-81
2022/07/25 05:53:18;;;;;;;8.05;6.60;;;36.20;51.80;;;;;;4921671;28;91982;-80
2022/07/25 05:55:43;;;;;;;8.73;6.90;;;36.00;51.00;;;;;;4920411;28;92555;-79
2022/07/25 05:58:09;;;;;;;9.00;6.68;;;36.60;50.40;;;;;;4919901;28;92157;-82
2022/07/25 06:00:36;;;;;;;10.50;6.38;;;36.60;49.80;;;;;;4920884;28;91893;-80
2022/07/25 06:03:02;;;;;;;7.95;6.00;;;37.00;50.20;;;;;;4921952;28;91529;-81
2022/07/25 06:05:28;;;;;;;7.82;6.75;;;37.70;49.60;;;;;;4919702;28;92687;-80
2022/07/25 06:07:53;;;;;;;9.30;6.13;;;38.30;47.90;;;;;;4919955;28;91359;-81
2022/07/25 06:10:19;;;;;;;8.68;5.60;;;38.50;47.80;;;;;;4916013;28;92062;-80
2022/07/25 06:12:45;;;;;;;6.97;6.25;;;38.50;47.80;;;;;;4903928;28;91788;-80
2022/07/25 06:15:11;;;;;;;9.30;7.10;;;38.90;47.40;;;;;;4901062;28;93700;-80
2022/07/25 06:17:36;;;;;;;6.82;6.13;;;39.10;47.50;;;;;;4900142;28;92086;-80
2022/07/25 06:20:03;;;;;;;7.18;6.18;;;39.70;46.70;;;;;;4901270;28;92309;-81
2022/07/25 06:22:29;;;;;;;9.48;7.50;;;40.40;44.70;;;;;;4901293;28;92013;-80
2022/07/25 06:24:55;;;;;;;6.50;5.53;;;40.30;45.20;;;;;;4900922;28;92327;-80
2022/07/25 06:27:21;;;;;;;8.65;7.00;;;39.50;44.10;;;;;;4901102;28;92015;-82
2022/07/25 06:29:46;;;;;;;10.07;6.97;;;39.40;47.00;;;;;;4903716;28;91946;-81
2022/07/25 06:32:12;;;;;;;7.93;5.63;;;40.00;45.60;;;;;;4902709;28;91482;-80
2022/07/25 06:34:38;;;;;;;8.18;6.80;;;40.40;45.10;;;;;;4900145;28;92206;-80
2022/07/25 06:37:04;;;;;;;8.95;6.72;;;41.30;43.80;;;;;;4902807;28;92139;-81
2022/07/25 06:39:29;;;;;;;8.15;7.30;;;41.30;44.20;;;;;;4899196;28;92893;-79
2022/07/25 06:41:57;;;;;;;10.88;7.82;;;41.50;44.10;;;;;;4897755;28;91995;-78
2022/07/25 06:44:22;;;;;;;9.00;8.07;;;42.40;42.80;;;;;;4896129;28;93915;-80
2022/07/25 06:46:48;;;;;;;8.60;6.82;;;42.20;43.80;;;;;;4896289;28;91920;-78
2022/07/25 06:49:14;;;;;;;9.10;7.72;;;42.90;42.00;;;;;;4897098;28;91945;-79
2022/07/25 06:51:40;;;;;;;8.60;7.00;;;42.90;42.20;;;;;;4897171;28;91608;-79
2022/07/25 06:54:05;;;;;;;8.07;6.63;;;42.70;42.60;;;;;;4896991;28;92572;-78
2022/07/25 06:56:31;;;;;;;7.53;6.72;;;43.90;40.70;;;;;;4897328;28;91019;-79
2022/07/25 06:58:58;;;;;;;10.60;8.35;;;44.50;39.80;;;;;;4898035;28;91593;-79
2022/07/25 07:01:24;;;;;;;7.65;6.72;;;44.10;39.80;;;;;;4898102;28;91943;-79
2022/07/25 07:03:49;;;;;;;7.47;6.70;;;44.20;39.20;;;;;;4900395;28;95844;-79
2022/07/25 07:06:15;;;;;;;8.13;7.22;;;44.50;40.00;;;;;;4900671;28;92108;-79
2022/07/25 07:08:41;;;;;;;7.15;6.45;;;45.00;40.20;;;;;;4901524;28;92271;-79
2022/07/25 07:11:06;;;;;;;10.27;8.70;;;45.90;38.20;;;;;;4911537;28;92884;-79
2022/07/25 07:13:33;;;;;;;9.80;8.52;;;46.60;38.20;;;;;;4919558;28;94190;-78
2022/07/25 07:15:59;;;;;;;8.48;7.68;;;47.30;38.00;;;;;;4921651;28;92234;-79
2022/07/25 07:18:25;;;;;;;9.10;8.27;;;47.60;37.60;;;;;;4921026;28;91972;-79
2022/07/25 07:20:51;;;;;;;9.88;8.88;;;47.70;36.10;;;;;;4921120;28;91412;-79
2022/07/25 07:23:17;;;;;;;10.65;9.02;;;48.30;35.80;;;;;;4920595;28;94279;-79
2022/07/25 07:25:44;;;;;;;9.18;7.93;;;48.60;35.10;;;;;;4920388;28;94698;-80
2022/07/25 07:28:10;;;;;;;7.45;6.75;;;48.00;35.90;;;;;;4921010;28;93398;-79
2022/07/25 07:30:36;;;;;;;9.35;8.45;;;48.30;34.80;;;;;;4920651;28;92031;-79
2022/07/25 07:33:02;;;;;;;8.00;7.05;;;49.00;35.20;;;;;;4921054;28;93253;-79
2022/07/25 07:35:28;;;;;;;10.45;9.45;;;49.60;34.70;;;;;;4921622;28;92005;-79
2022/07/25 07:37:54;;;;;;;10.18;8.98;;;49.30;35.20;;;;;;4923184;28;92057;-79
2022/07/25 07:40:21;;;;;;;10.68;9.68;;;49.90;35.10;;;;;;4921957;28;91636;-79
2022/07/25 07:42:48;;;;;;;9.85;8.85;;;50.00;34.50;;;;;;4921391;28;92746;-79
2022/07/25 07:45:17;;;;;;;10.25;9.20;;;50.30;35.00;;;;;;4921415;28;91276;-79
2022/07/25 07:47:44;;;;;;;9.00;8.10;;;49.90;34.00;;;;;;4920528;28;92145;-79
2022/07/25 07:50:10;;;;;;;9.90;8.93;;;49.00;35.50;;;;;;4921736;28;91945;-79
2022/07/25 07:52:36;;;;;;;9.77;8.55;;;49.10;35.30;;;;;;4921182;28;95876;-80
2022/07/25 07:57:47;;;;;;;8.38;7.55;;;50.70;34.10;;;;;;4921585;28;92442;-78
2022/07/25 08:00:13;;;;;;;11.10;10.10;;;51.20;33.60;;;;;;4921864;28;91963;-79
2022/07/25 08:02:48;;;;;;;10.63;8.40;;;51.50;33.00;;;;;;4920326;28;92319;-79
2022/07/25 08:05:28;;;;;;;9.55;8.68;;;51.60;33.60;;;;;;4921757;28;92368;-79
2022/07/25 08:07:54;;;;;;;12.43;11.35;;;51.90;33.70;;;;;;4921012;28;92192;-80
2022/07/25 08:10:29;;;;;;;11.45;9.85;;;52.40;32.50;;;;;;4916752;28;91824;-79
2022/07/25 08:12:56;;;;;;;9.88;9.07;;;52.00;33.00;;;;;;4902464;28;92925;-79
2022/07/25 08:15:22;;;;;;;12.65;11.55;;;52.50;31.10;;;;;;4901844;28;91940;-79
2022/07/25 08:17:49;;;;;;;14.05;12.75;;;52.50;33.00;;;;;;4900811;28;92981;-79
2022/07/25 08:20:21;;;;;;;11.23;10.23;;;52.50;32.70;;;;;;4901038;28;92061;-79
2022/07/25 08:22:48;;;;;;;10.38;9.40;;;52.20;32.40;;;;;;4901699;28;92350;-79
2022/07/25 08:25:17;;;;;;;12.60;11.50;;;53.00;31.80;;;;;;4902541;28;94957;-80
2022/07/25 08:27:43;;;;;;;11.63;10.52;;;53.30;31.80;;;;;;4901961;28;92397;-79
2022/07/25 08:30:10;;;;;;;11.45;10.25;;;53.30;32.10;;;;;;4902070;28;92449;-80
2022/07/25 08:32:46;;;;;;;13.50;11.77;;;54.00;31.80;;;;;;4899168;28;92524;-80
2022/07/25 08:35:12;;;;;;;12.98;11.73;;;53.60;32.30;;;;;;4900491;28;91346;-79
2022/07/25 08:37:38;;;;;;;12.73;11.57;;;54.00;31.80;;;;;;4900699;28;92652;-80
2022/07/25 08:40:04;;;;;;;12.80;11.65;;;54.70;31.60;;;;;;4899922;28;92145;-80
2022/07/25 08:42:32;;;;;;;12.55;11.45;;;54.90;31.40;;;;;;4899697;28;95361;-80
2022/07/25 08:45:01;;;;;;;14.90;13.45;;;55.50;29.70;;;;;;4897841;28;92084;-79
2022/07/25 08:47:28;;;;;;;12.65;11.40;;;54.30;29.80;;;;;;4897457;28;92250;-79
2022/07/25 08:49:55;;;;;;;12.20;11.10;;;55.10;28.80;;;;;;4898868;28;92017;-79
2022/07/25 08:52:21;;;;;;;15.00;12.90;;;55.20;29.90;;;;;;4899204;28;92120;-79
2022/07/25 08:54:49;;;;;;;12.73;11.52;;;56.20;27.80;;;;;;4898847;28;92494;-79
2022/07/25 08:57:16;;;;;;;13.32;12.30;;;56.50;28.40;;;;;;4898439;28;92378;-79
2022/07/25 08:59:42;;;;;;;14.23;13.13;;;57.10;28.50;;;;;;4899614;28;91274;-79
2022/07/25 09:02:15;;;;;;;12.88;11.88;;;57.80;28.40;;;;;;4897435;28;94707;-79
2022/07/25 09:04:42;;;;;;;14.15;13.05;;;57.90;28.40;;;;;;4898985;28;94222;-79
2022/07/25 09:07:08;;;;;;;13.55;12.32;;;57.30;29.50;;;;;;4898365;28;92621;-79
2022/07/25 09:09:35;;;;;;;16.52;14.98;;;57.00;29.20;;;;;;4898905;28;92029;-79
2022/07/25 09:12:01;;;;;;;;;;;56.50;30.30;;;;;;4916408;28;94136;-79
2022/07/25 09:14:30;;;;;;;13.88;12.82;;;56.20;30.70;;;;;;4919713;28;92507;-79
2022/07/25 09:16:56;;;;;;;14.95;13.68;;;56.20;29.20;;;;;;4918698;28;92071;-79
2022/07/25 09:19:24;;;;;;;17.02;15.57;;;55.40;30.20;;;;;;4918952;28;92547;-79
2022/07/25 09:22:06;;;;;;;17.05;15.65;;;55.50;30.80;;;;;;4919468;28;92719;-79
2022/07/25 09:24:32;;;;;;;15.40;14.10;;;54.70;31.40;;;;;;4919216;28;91240;-80
2022/07/25 09:27:09;;;;;;;15.07;13.55;;;54.30;31.50;;;;;;4919216;28;92046;-79
2022/07/25 09:29:37;;;;;;;19.90;18.17;;;53.30;30.80;;;;;;4919375;28;92043;-80
2022/07/25 09:32:14;;;;;;;14.48;13.27;;;52.90;30.70;;;;;;4917283;28;93670;-79
2022/07/25 09:34:43;;;;;;;15.18;13.85;;;52.10;33.20;;;;;;4919207;28;95379;-80
2022/07/25 09:37:11;;;;;;;13.90;12.70;;;53.40;33.00;;;;;;4920185;28;92055;-78
2022/07/25 09:39:39;;;;;;;16.48;14.88;;;53.10;31.40;;;;;;4918877;28;92132;-80
2022/07/25 09:42:27;;;;;;;16.85;15.35;;;53.90;32.20;;;;;;4919007;28;93630;-80
2022/07/25 09:45:19;;;;;;;15.70;14.30;;;54.90;31.40;;;;;;4919247;28;93610;-80
2022/07/25 09:47:57;;;;;;;17.58;16.08;;;55.30;31.60;;;;;;4914247;28;92194;-80
2022/07/25 09:50:25;;;;;;;14.18;12.82;;;55.30;30.40;;;;;;4918578;28;90998;-80
2022/07/25 09:52:51;;;;;;;;;;;54.30;31.10;;;;;;4918286;28;92722;-78
2022/07/25 09:55:18;;;;;;;16.52;15.15;;;54.30;32.00;;;;;;4920108;28;92082;-79
2022/07/25 09:57:43;;;;;;;17.10;15.70;;;54.60;31.40;;;;;;4917981;28;93020;-79
2022/07/25 10:00:11;;;;;;;14.40;13.18;;;54.30;30.40;;;;;;4918621;28;92424;-79
2022/07/25 10:02:51;;;;;;;16.33;14.93;;;54.30;31.10;;;;;;4917276;28;92717;-80
2022/07/25 10:05:35;;;;;;;;;;;55.20;31.70;;;;;;4918047;28;94090;-79
2022/07/25 10:08:06;;;;;;;14.65;13.43;;;54.70;30.30;;;;;;4919998;28;92559;-79
2022/07/25 10:10:38;;;;;;;15.27;13.95;;;54.30;30.70;;;;;;4911945;28;92442;-80
2022/07/25 10:13:12;;;;;;;14.95;13.75;;;53.50;31.80;;;;;;4899169;28;92606;-79
2022/07/25 10:15:51;;;;;;;15.82;14.43;;;53.20;32.40;;;;;;4898736;28;93494;-80
2022/07/25 10:18:20;;;;;;;15.35;13.90;;;51.70;32.60;;;;;;4898485;28;91912;-80
2022/07/25 10:20:47;;;;;;;11.90;10.88;;;49.90;33.80;;;;;;4898361;28;91982;-79
2022/07/25 10:23:17;;;;;;;12.63;11.20;;;47.50;35.20;;;;;;4897416;28;93490;-79
2022/07/25 10:25:43;;;;;;;11.85;10.82;;;44.50;38.60;;;;;;4897811;28;92937;-79
2022/07/25 10:28:09;;;;;;;11.38;10.18;;;42.30;41.10;;;;;;4897352;28;91959;-79
2022/07/25 10:30:39;;;;;;;9.93;9.13;;;41.00;43.60;;;;;;4897080;28;92093;-79
2022/07/25 10:33:12;;;;;;;8.45;7.65;;;39.90;45.60;;;;;;4897179;28;92112;-79
2022/07/25 10:35:38;;;;;;;11.18;8.25;;;38.20;46.70;;;;;;4895724;28;92319;-78
2022/07/25 10:38:05;;;;;;;7.60;5.97;;;37.60;47.90;;;;;;4896345;28;91953;-80
2022/07/25 10:40:36;;;;;;;8.25;7.47;;;37.10;46.90;;;;;;4903425;28;91014;-81
2022/07/25 10:43:04;;;;;;;7.35;6.63;;;36.60;47.60;;;;;;4901788;28;91554;-81
2022/07/25 10:45:38;;;;;;;8.13;6.10;;;36.30;48.50;;;;;;4903755;28;92043;-81
2022/07/25 10:48:09;;;;;;;6.90;6.10;;;36.40;48.80;;;;;;4901618;28;92969;-81
2022/07/25 10:51:05;;;;;;;8.18;7.38;;;36.20;47.00;;;;;;4902575;28;92013;-80
2022/07/25 10:53:35;;;;;;;8.45;5.97;;;35.80;46.80;;;;;;4898820;28;91952;-78
2022/07/25 10:56:08;;;;;;;7.68;6.93;;;35.50;46.10;;;;;;4896096;28;92674;-78
2022/07/25 10:58:49;;;;;;;10.38;6.13;;;35.50;45.90;;;;;;4896120;28;91761;-78
2022/07/25 11:01:22;;;;;;;8.18;5.88;;;35.20;49.00;;;;;;4895889;28;92055;-78
2022/07/25 11:03:49;;;;;;;7.97;6.05;;;35.00;49.10;;;;;;4896331;28;92355;-78
2022/07/25 11:06:16;;;;;;;9.80;7.05;;;34.90;48.70;;;;;;4896149;28;92574;-78
2022/07/25 11:08:43;;;;;;;7.03;6.32;;;34.80;49.70;;;;;;4896702;28;92387;-78
2022/07/25 11:11:10;;;;;;;7.07;6.20;;;34.70;49.10;;;;;;4906796;28;92036;-78
2022/07/25 11:13:40;;;;;;;7.75;6.50;;;34.60;50.60;;;;;;4914370;28;94192;-78
2022/07/25 11:16:08;;;;;;;6.68;5.28;;;34.50;51.20;;;;;;4915823;28;93921;-78
2022/07/25 11:18:39;;;;;;;6.55;5.72;;;34.40;51.20;;;;;;4915324;28;92044;-78
2022/07/25 11:21:07;;;;;;;7.45;6.53;;;34.60;50.00;;;;;;4915409;28;92163;-78
2022/07/25 11:23:34;;;;;;;8.80;6.65;;;34.80;50.20;;;;;;4914781;28;92670;-79
2022/07/25 11:26:11;;;;;;;8.85;7.15;;;34.90;51.80;;;;;;4914419;28;92166;-78
2022/07/25 11:28:43;;;;;;;6.93;5.57;;;34.70;50.10;;;;;;4914557;28;91985;-78
2022/07/25 11:31:09;;;;;;;8.50;6.65;;;34.70;48.30;;;;;;4915827;28;91263;-79
2022/07/25 11:33:36;;;;;;;7.40;6.47;;;34.80;49.00;;;;;;4920032;28;93193;-80
2022/07/25 11:36:02;;;;;;;7.25;5.65;;;34.60;51.80;;;;;;4921320;28;91992;-80
2022/07/25 11:38:28;;;;;;;11.25;6.95;;;34.50;51.20;;;;;;4920406;28;93284;-80
2022/07/25 11:40:54;;;;;;;7.60;6.18;;;34.30;52.50;;;;;;4920188;28;92066;-80
2022/07/25 11:43:21;;;;;;;7.70;5.65;;;34.30;51.20;;;;;;4920790;28;92115;-81
2022/07/25 11:45:57;;;;;;;7.45;5.93;;;34.40;51.10;;;;;;4920150;28;91529;-81
2022/07/25 11:48:31;;;;;;;7.68;5.47;;;34.60;51.00;;;;;;4922149;28;92069;-81
2022/07/25 11:50:56;;;;;;;8.05;6.50;;;34.30;50.40;;;;;;4923456;28;92027;-80
2022/07/25 11:53:24;;;;;;;8.52;6.05;;;34.30;50.50;;;;;;4923291;28;94762;-80
2022/07/25 11:55:50;;;;;;;10.27;5.47;;;34.10;51.20;;;;;;4923933;28;91184;-81
2022/07/25 11:58:16;;;;;;;6.22;5.30;;;34.10;49.90;;;;;;4924096;28;92361;-81
2022/07/25 12:00:44;;;;;;;8.35;5.97;;;34.50;51.30;;;;;;4925621;28;91975;-81
2022/07/25 12:03:13;;;;;;;7.03;5.85;;;34.10;52.10;;;;;;4923376;28;93051;-80
2022/07/25 12:05:39;;;;;;;7.38;6.40;;;34.20;51.10;;;;;;4923314;28;93853;-80
2022/07/25 12:08:17;;;;;;;6.97;5.32;;;34.40;49.90;;;;;;4925058;28;92165;-80
2022/07/25 12:10:50;;;;;;;6.82;5.88;;;34.40;50.80;;;;;;4924561;28;92608;-80
2022/07/25 12:13:27;;;;;;;12.02;5.88;;;34.50;50.70;;;;;;4924140;28;92446;-81
2022/07/25 12:15:55;;;;;;;8.40;5.80;;;34.30;52.70;;;;;;4922897;28;92109;-80
2022/07/25 12:18:21;;;;;;;6.68;5.15;;;34.40;49.70;;;;;;4923833;28;92167;-80
2022/07/25 12:20:47;;;;;;;9.23;5.72;;;34.50;49.70;;;;;;4923878;28;91844;-80
2022/07/25 12:23:13;;;;;;;7.60;5.05;;;34.50;49.10;;;;;;4922600;28;93551;-80
2022/07/25 12:25:45;;;;;;;6.50;5.20;;;34.40;50.10;;;;;;4922817;28;92384;-80
2022/07/25 12:28:12;;;;;;;8.00;5.00;;;34.40;49.40;;;;;;4923117;28;92920;-81
2022/07/25 12:30:40;;;;;;;6.30;4.95;;;34.50;47.30;;;;;;4923790;28;92102;-81
2022/07/25 12:33:05;;;;;;;8.57;5.03;;;34.50;49.10;;;;;;4922292;28;92348;-80
2022/07/25 12:35:32;;;;;;;5.82;4.82;;;34.60;51.50;;;;;;4921441;28;93633;-80
2022/07/25 12:37:58;;;;;;;5.75;4.47;;;34.30;50.50;;;;;;4923068;28;92113;-80
2022/07/25 12:40:24;;;;;;;6.85;4.90;;;34.40;47.60;;;;;;4923721;28;92011;-81
2022/07/25 12:42:49;;;;;;;7.30;4.60;;;34.60;46.80;;;;;;4923627;28;92690;-81
2022/07/25 12:45:16;;;;;;;7.22;5.05;;;34.70;46.30;;;;;;4923620;28;92250;-80
2022/07/25 12:47:46;;;;;;;10.43;5.18;;;34.60;48.80;;;;;;4922689;28;92087;-81
2022/07/25 12:50:13;;;;;;;8.38;4.80;;;34.30;45.60;;;;;;4923965;28;92271;-81
2022/07/25 12:52:39;;;;;;;8.35;5.00;;;34.10;47.80;;;;;;4920635;28;93225;-80
2022/07/25 12:55:14;;;;;;;6.47;5.20;;;34.10;47.40;;;;;;4920724;28;93348;-79
2022/07/25 12:57:40;;;;;;;7.30;4.10;;;33.80;50.00;;;;;;4920993;28;92060;-80
2022/07/25 13:00:09;;;;;;;4.97;4.40;;;34.00;49.30;;;;;;4920079;28;91995;-81
2022/07/25 13:02:35;;;;;;;6.28;4.70;;;34.10;49.80;;;;;;4920832;28;92785;-80
2022/07/25 13:05:02;;;;;;;6.55;4.50;;;34.30;47.10;;;;;;4920529;28;92293;-81
2022/07/25 13:07:27;;;;;;;6.30;4.80;;;34.30;48.30;;;;;;4920257;28;92190;-79
2022/07/25 13:09:53;;;;;;;7.32;5.13;;;34.20;47.90;;;;;;4919675;28;91318;-80
2022/07/25 13:12:20;;;;;;;8.48;4.50;;;34.00;47.40;;;;;;4901151;28;93116;-80
2022/07/25 13:14:45;;;;;;;4.82;4.20;;;34.00;48.70;;;;;;4900574;28;92081;-80
2022/07/25 13:17:11;;;;;;;6.00;4.65;;;34.10;46.70;;;;;;4901332;28;93239;-80
2022/07/25 13:19:37;;;;;;;5.72;4.07;;;34.00;49.10;;;;;;4900785;28;92010;-79
2022/07/25 13:22:02;;;;;;;8.30;5.47;;;34.00;46.60;;;;;;4900639;28;92293;-81
2022/07/25 13:24:28;;;;;;;7.57;3.85;;;33.90;46.50;;;;;;4903222;28;92035;-80
2022/07/25 13:26:54;;;;;;;7.70;4.00;;;33.80;47.70;;;;;;4902891;28;91959;-82
2022/07/25 13:29:19;;;;;;;7.78;4.38;;;34.00;48.40;;;;;;4886105;28;91378;-80
2022/07/25 13:31:46;;;;;;;4.45;3.63;;;34.00;48.60;;;;;;4902765;28;91877;-81
2022/07/25 13:34:11;;;;;;;5.28;4.03;;;33.90;48.70;;;;;;4902985;28;92132;-81
2022/07/25 13:36:38;;;;;;;5.90;4.10;;;33.80;48.40;;;;;;4903579;28;92205;-80
2022/07/25 13:39:05;;;;;;;4.85;4.10;;;33.60;47.70;;;;;;4900813;28;91954;-80
2022/07/25 13:41:30;;;;;;;5.95;4.10;;;33.50;47.60;;;;;;4900003;28;93085;-79
2022/07/25 13:43:56;;;;;;;5.07;4.03;;;33.60;48.40;;;;;;4899450;28;92660;-80
2022/07/25 13:46:22;;;;;;;4.72;3.75;;;33.80;47.50;;;;;;4900082;28;91889;-79
2022/07/25 13:48:48;;;;;;;5.00;3.92;;;33.60;47.30;;;;;;4900271;28;91939;-79
2022/07/25 13:51:14;;;;;;;4.68;3.92;;;33.50;49.20;;;;;;4899289;28;92235;-81
2022/07/25 13:53:40;;;;;;;5.55;3.88;;;33.50;49.30;;;;;;4901432;28;91949;-80
2022/07/25 13:56:06;;;;;;;5.38;4.25;;;33.70;49.90;;;;;;4901547;28;91949;-81
2022/07/25 13:58:32;;;;;;;6.32;3.53;;;33.80;49.10;;;;;;4903132;28;91285;-80
2022/07/25 14:00:58;;;;;;;8.95;4.32;;;33.70;47.90;;;;;;4901475;28;92185;-80
2022/07/25 14:03:24;;;;;;;6.70;3.60;;;33.90;45.40;;;;;;4901252;28;92347;-81
2022/07/25 14:05:49;;;;;;;7.55;3.42;;;33.90;46.90;;;;;;4900613;28;93487;-80
2022/07/25 14:08:15;;;;;;;4.60;3.80;;;34.00;46.40;;;;;;4902289;28;92318;-81
2022/07/25 14:10:41;;;;;;;7.05;4.35;;;34.20;45.10;;;;;;4907775;28;93591;-80
2022/07/25 14:13:06;;;;;;;7.22;3.80;;;34.40;42.30;;;;;;4920503;28;92684;-80
2022/07/25 14:15:32;;;;;;;6.70;3.97;;;34.40;43.80;;;;;;4921279;28;92477;-80
2022/07/25 14:17:58;;;;;;;5.32;3.40;;;34.40;46.60;;;;;;4920959;28;92097;-80
2022/07/25 14:20:24;;;;;;;6.22;3.22;;;34.20;47.10;;;;;;4920597;28;92334;-81
2022/07/25 14:22:49;;;;;;;5.53;3.95;;;34.30;45.20;;;;;;4920770;28;91857;-80
2022/07/25 14:25:15;;;;;;;6.82;3.90;;;34.30;44.00;;;;;;4920659;28;92060;-81
2022/07/25 14:27:41;;;;;;;4.35;3.90;;;34.40;43.70;;;;;;4920430;28;92088;-80
2022/07/25 14:30:08;;;;;;;6.07;2.97;;;34.50;46.00;;;;;;4919713;28;93618;-81
2022/07/25 14:32:34;;;;;;;4.65;3.45;;;34.40;43.80;;;;;;4920027;28;94735;-81
2022/07/25 14:35:01;;;;;;;5.47;2.90;;;34.30;46.00;;;;;;4920506;28;92124;-81
2022/07/25 14:37:27;;;;;;;5.40;3.55;;;34.40;43.40;;;;;;4919730;28;91892;-79
2022/07/25 14:39:53;;;;;;;6.38;4.20;;;34.30;42.40;;;;;;4917764;28;92060;-79
2022/07/25 14:42:18;;;;;;;6.03;3.60;;;34.40;44.20;;;;;;4918057;28;92018;-80
2022/07/25 14:44:44;;;;;;;6.07;4.25;;;34.30;45.80;;;;;;4919392;28;92093;-80
2022/07/25 14:47:10;;;;;;;4.72;3.50;;;34.30;44.70;;;;;;4919048;28;91241;-81
2022/07/25 14:49:35;;;;;;;5.85;4.50;;;34.00;43.70;;;;;;4918386;28;93801;-79
2022/07/25 14:52:01;;;;;;;5.43;4.13;;;34.00;44.90;;;;;;4918368;28;91973;-80
2022/07/25 14:54:27;;;;;;;6.43;4.20;;;34.00;45.90;;;;;;4920352;28;93000;-80
2022/07/25 14:56:56;;;;;;;4.65;3.67;;;33.90;44.10;;;;;;4920371;28;92477;-80
2022/07/25 14:59:25;;;;;;;5.65;3.85;;;33.90;43.20;;;;;;4920564;28;92047;-80
2022/07/25 15:01:50;;;;;;;4.45;3.22;;;33.90;46.80;;;;;;4918522;28;92002;-81
2022/07/25 15:04:20;;;;;;;4.47;3.45;;;33.90;45.50;;;;;;4920893;28;92089;-80
2022/07/25 15:06:46;;;;;;;4.68;2.97;;;33.70;47.50;;;;;;4920013;28;91917;-80
2022/07/25 15:09:12;;;;;;;6.05;3.13;;;33.70;46.10;;;;;;4918320;28;93411;-79
2022/07/25 15:11:38;;;;;;;4.88;3.63;;;33.90;42.50;;;;;;4918020;28;92843;-80
2022/07/25 15:14:04;;;;;;;3.38;2.78;;;34.10;44.40;;;;;;4918804;28;92085;-80
2022/07/25 15:16:29;;;;;;;3.42;2.60;;;34.10;45.40;;;;;;4919030;28;92107;-81
2022/07/25 15:18:58;;;;;;;3.60;2.38;;;34.00;43.40;;;;;;4917408;28;95903;-80
2022/07/25 15:21:24;;;;;;;;;;;33.90;44.20;;;;;;4919021;28;92456;-81
2022/07/25 15:23:51;;;;;;;5.18;2.85;;;34.00;46.50;;;;;;4921781;28;92049;-80
2022/07/25 15:26:17;;;;;;;4.70;3.22;;;33.90;43.00;;;;;;4921779;28;92057;-80
2022/07/25 15:28:43;;;;;;;3.53;2.78;;;34.00;46.00;;;;;;4921248;28;92073;-80
2022/07/25 15:31:09;;;;;;;3.17;2.47;;;34.10;46.80;;;;;;4921386;28;92310;-80
2022/07/25 15:33:35;;;;;;;4.43;2.67;;;33.90;43.30;;;;;;4921388;28;92141;-80